createdAt,value
2019-06-10T00:00:33.578Z,3.00
2019-06-10T00:03:05.995Z,3.13
2019-06-10T00:05:35.110Z,2.80
2019-06-10T00:08:03.866Z,2.80
2019-06-10T00:10:31.169Z,3.10
2019-06-10T00:12:58.177Z,2.80
2019-06-10T00:15:25.150Z,2.80
2019-06-10T00:18:07.064Z,2.70
2019-06-10T00:20:26.169Z,3.10
2019-06-10T00:22:53.149Z,3.27
2019-06-10T00:25:21.048Z,2.93
2019-06-10T00:27:51.163Z,2.13
2019-06-10T00:30:20.900Z,2.70
2019-06-10T00:32:51.593Z,2.97
2019-06-10T00:35:20.969Z,2.67
2019-06-10T00:37:47.651Z,2.50
2019-06-10T00:40:14.632Z,3.10
2019-06-10T00:42:45.674Z,3.00
2019-06-10T00:45:17.830Z,2.40
2019-06-10T00:47:41.686Z,2.30
2019-06-10T00:50:14.522Z,2.33
2019-06-10T00:52:43.122Z,2.20
2019-06-10T00:55:12.060Z,2.50
2019-06-10T00:57:38.123Z,2.03
2019-06-10T01:00:15.826Z,2.27
2019-06-10T01:02:35.284Z,2.40
2019-06-10T01:05:05.337Z,2.10
2019-06-10T01:07:32.375Z,2.10
2019-06-10T01:10:02.845Z,2.30
2019-06-10T01:12:34.538Z,1.97
2019-06-10T01:15:01.540Z,2.20
2019-06-10T01:17:30.990Z,2.63
2019-06-10T01:20:01.678Z,2.77
2019-06-10T01:22:28.748Z,2.57
2019-06-10T01:24:55.747Z,2.00
2019-06-10T01:27:31.392Z,2.20
2019-06-10T01:29:58.091Z,2.60
2019-06-10T01:32:25.107Z,2.17
2019-06-10T01:34:52.490Z,2.30
2019-06-10T01:37:21.818Z,1.90
2019-06-10T01:39:48.369Z,1.87
2019-06-10T01:42:17.217Z,2.00
2019-06-10T01:44:44.258Z,2.10
2019-06-10T01:47:12.984Z,2.20
2019-06-10T01:49:41.222Z,2.40
2019-06-10T01:52:12.451Z,2.50
2019-06-10T01:54:42.183Z,2.43
2019-06-10T01:57:13.759Z,2.57
2019-06-10T01:59:44.291Z,3.63
2019-06-10T02:02:17.675Z,2.50
2019-06-10T02:04:44.946Z,2.10
2019-06-10T02:07:15.519Z,2.30
2019-06-10T02:09:45.321Z,2.23
2019-06-10T02:12:15.890Z,2.90
2019-06-10T02:14:41.636Z,2.73
2019-06-10T02:17:13.075Z,2.70
2019-06-10T02:19:41.438Z,3.23
2019-06-10T02:22:08.564Z,3.20
2019-06-10T02:24:41.670Z,2.47
2019-06-10T02:27:11.714Z,3.00
2019-06-10T02:29:37.924Z,2.90
2019-06-10T02:32:05.317Z,3.63
2019-06-10T02:34:34.093Z,3.37
2019-06-10T02:37:04.666Z,3.07
2019-06-10T02:39:35.108Z,3.40
2019-06-10T02:42:04.965Z,3.00
2019-06-10T02:44:37.132Z,3.03
2019-06-10T02:47:03.752Z,3.70
2019-06-10T02:49:51.672Z,3.70
2019-06-10T02:52:03.434Z,3.20
2019-06-10T02:54:35.463Z,3.30
2019-06-10T02:56:59.662Z,3.37
2019-06-10T02:59:31.130Z,4.07
2019-06-10T03:01:58.660Z,3.67
2019-06-10T03:04:36.526Z,3.87
2019-06-10T03:07:03.197Z,3.30
2019-06-10T03:09:31.927Z,4.33
2019-06-10T03:11:57.693Z,4.00
2019-06-10T03:14:25.382Z,3.70
2019-06-10T03:16:56.183Z,4.03
2019-06-10T03:19:41.908Z,3.30
2019-06-10T03:21:56.677Z,3.47
2019-06-10T03:24:25.200Z,3.33
2019-06-10T03:26:55.241Z,3.30
2019-06-10T03:29:25.341Z,3.53
2019-06-10T03:31:55.402Z,3.20
2019-06-10T03:34:28.289Z,3.67
2019-06-10T03:36:50.348Z,3.47
2019-06-10T03:39:18.554Z,3.47
2019-06-10T03:41:45.732Z,3.20
2019-06-10T03:44:17.821Z,3.53
2019-06-10T03:46:47.223Z,4.13
2019-06-10T03:49:14.172Z,3.90
2019-06-10T03:51:42.764Z,4.00
2019-06-10T03:54:10.285Z,3.80
2019-06-10T03:56:37.254Z,4.10
2019-06-10T03:59:07.054Z,4.17
2019-06-10T04:01:35.933Z,3.50
2019-06-10T04:04:03.029Z,4.30
2019-06-10T04:06:33.356Z,4.10
2019-06-10T04:09:03.950Z,4.20
2019-06-10T04:11:34.830Z,3.90
2019-06-10T04:14:02.227Z,3.70
2019-06-10T04:16:34.435Z,4.00
2019-06-10T04:19:02.568Z,3.83
2019-06-10T04:21:32.598Z,3.77
2019-06-10T04:24:02.059Z,3.83
2019-06-10T04:26:29.680Z,3.90
2019-06-10T04:28:56.744Z,3.83
2019-06-10T04:31:26.543Z,4.03
2019-06-10T04:33:53.941Z,3.93
2019-06-10T04:36:28.205Z,4.20
2019-06-10T04:38:59.425Z,3.83
2019-06-10T04:41:32.445Z,4.10
2019-06-10T04:43:59.577Z,4.53
2019-06-10T04:46:29.639Z,4.23
2019-06-10T04:48:56.717Z,4.60
2019-06-10T04:51:26.458Z,4.20
2019-06-10T04:53:52.728Z,4.30
2019-06-10T04:56:19.762Z,4.90
2019-06-10T04:58:46.737Z,4.40
2019-06-10T05:01:13.705Z,4.23
2019-06-10T05:03:43.210Z,4.87
2019-06-10T05:06:12.121Z,5.03
2019-06-10T05:08:47.308Z,4.60
2019-06-10T05:11:19.410Z,4.60
2019-06-10T05:13:46.406Z,4.77
2019-06-10T05:16:19.680Z,5.30
2019-06-10T05:18:46.644Z,5.00
2019-06-10T05:21:13.684Z,5.10
2019-06-10T05:23:42.790Z,5.73
2019-06-10T05:26:09.645Z,5.20
2019-06-10T05:28:42.961Z,4.90
2019-06-10T05:31:09.486Z,5.20
2019-06-10T05:33:36.435Z,5.37
2019-06-10T05:36:03.547Z,4.93
2019-06-10T05:38:35.056Z,5.10
2019-06-10T05:41:03.001Z,5.30
2019-06-10T05:43:32.930Z,5.00
2019-06-10T05:46:03.142Z,4.60
2019-06-10T05:48:34.873Z,5.63
2019-06-10T05:51:05.744Z,5.00
2019-06-10T05:53:29.315Z,5.23
2019-06-10T05:56:02.590Z,4.80
2019-06-10T05:58:35.994Z,5.57
2019-06-10T06:01:03.099Z,5.33
2019-06-10T06:03:36.939Z,5.73
2019-06-10T06:06:08.106Z,5.23
2019-06-10T06:08:35.574Z,4.50
2019-06-10T06:11:12.838Z,4.87
2019-06-10T06:13:39.949Z,4.60
2019-06-10T06:16:07.357Z,5.00
2019-06-10T06:18:36.812Z,4.63
2019-06-10T06:21:20.951Z,4.60
2019-06-10T06:23:36.733Z,4.80
2019-06-10T06:26:04.744Z,4.53
2019-06-10T06:28:36.075Z,4.33
2019-06-10T06:31:03.493Z,4.17
2019-06-10T06:33:34.521Z,4.33
2019-06-10T06:36:03.449Z,4.70
2019-06-10T06:38:37.206Z,4.30
2019-06-10T06:41:10.616Z,3.90
2019-06-10T06:43:41.980Z,5.30
2019-06-10T06:46:06.483Z,3.83
2019-06-10T06:48:38.762Z,4.60
2019-06-10T06:51:08.287Z,4.40
2019-06-10T06:53:44.407Z,4.87
2019-06-10T06:56:04.812Z,4.00
2019-06-10T06:58:36.945Z,4.27
2019-06-10T07:01:10.478Z,4.27
2019-06-10T07:03:35.225Z,3.97
2019-06-10T07:06:07.477Z,4.27
2019-06-10T07:08:38.106Z,3.83
2019-06-10T07:11:05.436Z,3.80
2019-06-10T07:13:35.473Z,3.83
2019-06-10T07:16:02.938Z,3.37
2019-06-10T07:18:32.674Z,3.67
2019-06-10T07:20:59.120Z,3.83
2019-06-10T07:23:30.023Z,3.70
2019-06-10T07:25:56.996Z,4.10
2019-06-10T07:28:23.986Z,3.40
2019-06-10T07:30:55.308Z,3.73
2019-06-10T07:33:22.721Z,4.00
2019-06-10T07:35:52.342Z,4.07
2019-06-10T07:38:18.744Z,3.63
2019-06-10T07:40:45.984Z,3.57
2019-06-10T07:43:13.083Z,3.80
2019-06-10T07:45:47.382Z,3.53
2019-06-10T07:48:13.999Z,3.80
2019-06-10T07:50:47.416Z,3.40
2019-06-10T07:53:14.376Z,3.83
2019-06-10T07:55:44.775Z,3.80
2019-06-10T07:58:17.559Z,3.83
2019-06-10T08:00:53.465Z,4.10
2019-06-10T08:03:22.462Z,3.50
2019-06-10T08:05:49.603Z,3.50
2019-06-10T08:08:23.549Z,4.17
2019-06-10T08:10:52.797Z,3.70
2019-06-10T08:13:19.488Z,3.87
2019-06-10T08:15:46.487Z,3.83
2019-06-10T08:18:13.440Z,3.80
2019-06-10T08:20:48.033Z,3.77
2019-06-10T08:23:19.398Z,4.13
2019-06-10T08:25:53.339Z,4.03
2019-06-10T08:28:19.335Z,3.83
2019-06-10T08:30:46.331Z,4.10
2019-06-10T08:33:13.884Z,4.50
2019-06-10T08:35:48.383Z,4.37
2019-06-10T08:38:12.417Z,4.03
2019-06-10T08:40:40.650Z,4.30
2019-06-10T08:43:08.442Z,4.17
2019-06-10T08:45:38.932Z,4.80
2019-06-10T08:48:06.136Z,4.27
2019-06-10T08:50:33.820Z,3.97
2019-06-10T08:53:13.504Z,4.37
2019-06-10T08:55:33.467Z,3.67
2019-06-10T08:58:02.756Z,4.73
2019-06-10T09:00:33.156Z,4.67
2019-06-10T09:03:07.110Z,5.27
2019-06-10T09:05:34.093Z,4.87
2019-06-10T09:08:02.862Z,5.10
2019-06-10T09:10:33.918Z,4.90
2019-06-10T09:13:02.756Z,5.03
2019-06-10T09:15:32.364Z,4.33
2019-06-10T09:18:02.641Z,5.10
2019-06-10T09:20:29.933Z,5.20
2019-06-10T09:23:15.043Z,5.40
2019-06-10T09:25:25.847Z,4.90
2019-06-10T09:27:54.776Z,5.13
2019-06-10T09:30:24.904Z,4.90
2019-06-10T09:32:56.423Z,5.00
2019-06-10T09:35:23.401Z,4.63
2019-06-10T09:37:55.846Z,4.97
2019-06-10T09:40:33.348Z,5.57
2019-06-10T09:43:02.366Z,4.70
2019-06-10T09:45:28.660Z,5.30
2019-06-10T09:48:00.251Z,5.23
2019-06-10T09:50:38.278Z,5.00
2019-06-10T09:53:05.232Z,4.77
2019-06-10T09:55:32.870Z,5.30
2019-06-10T09:58:03.189Z,5.07
2019-06-10T10:00:47.543Z,4.93
2019-06-10T10:03:16.147Z,5.50
2019-06-10T10:05:55.867Z,5.80
2019-06-10T10:08:12.897Z,4.97
2019-06-10T10:10:42.839Z,4.73
2019-06-10T10:13:09.733Z,5.30
2019-06-10T10:15:37.149Z,4.90
2019-06-10T10:18:13.191Z,5.07
2019-06-10T10:20:39.429Z,5.00
2019-06-10T10:23:06.802Z,5.13
2019-06-10T10:25:35.913Z,5.43
2019-06-10T10:28:03.311Z,5.70
2019-06-10T10:30:33.009Z,5.60
2019-06-10T10:33:03.887Z,5.20
2019-06-10T10:35:32.645Z,5.50
2019-06-10T10:37:59.882Z,5.27
2019-06-10T10:40:28.258Z,5.13
2019-06-10T10:43:10.101Z,5.00
2019-06-10T10:45:24.244Z,5.40
2019-06-10T10:47:52.609Z,5.60
2019-06-10T10:50:22.531Z,5.70
2019-06-10T10:52:49.929Z,5.20
2019-06-10T10:55:22.176Z,5.27
2019-06-10T10:57:49.377Z,5.63
2019-06-10T11:00:19.485Z,6.00
2019-06-10T11:02:53.083Z,5.93
2019-06-10T11:05:33.947Z,5.03
2019-06-10T11:08:01.375Z,4.90
2019-06-10T11:10:29.444Z,4.83
2019-06-10T11:12:57.935Z,5.77
2019-06-10T11:15:27.305Z,4.77
2019-06-10T11:17:56.357Z,5.37
2019-06-10T11:20:23.207Z,5.33
2019-06-10T11:22:51.395Z,5.30
2019-06-10T11:25:18.565Z,5.90
2019-06-10T11:27:48.568Z,5.33
2019-06-10T11:30:16.017Z,5.90
2019-06-10T11:32:43.345Z,5.27
2019-06-10T11:35:13.435Z,5.60
2019-06-10T11:37:42.288Z,5.60
2019-06-10T11:40:09.532Z,5.87
2019-06-10T11:42:36.543Z,5.80
2019-06-10T11:45:07.382Z,5.40
2019-06-10T11:47:34.363Z,5.20
2019-06-10T11:50:03.508Z,5.70
2019-06-10T11:52:33.359Z,5.87
2019-06-10T11:55:11.696Z,5.90
2019-06-10T11:57:28.067Z,6.00
2019-06-10T11:59:56.590Z,5.87
2019-06-10T12:02:23.916Z,5.30
2019-06-10T12:04:53.200Z,6.03
2019-06-10T12:07:22.335Z,5.13
2019-06-10T12:09:50.848Z,5.80
2019-06-10T12:12:18.414Z,6.57
2019-06-10T12:14:45.356Z,5.60
2019-06-10T12:17:27.582Z,6.30
2019-06-10T12:19:43.283Z,5.60
2019-06-10T12:22:10.272Z,6.07
2019-06-10T12:24:43.476Z,5.63
2019-06-10T12:27:12.959Z,5.90
2019-06-10T12:29:39.330Z,6.30
2019-06-10T12:32:08.094Z,5.90
2019-06-10T12:34:40.523Z,6.10
2019-06-10T12:37:11.121Z,6.63
2019-06-10T12:39:36.421Z,5.87
2019-06-10T12:42:06.549Z,5.93
2019-06-10T12:44:37.713Z,6.40
2019-06-10T12:47:07.598Z,6.33
2019-06-10T12:49:35.772Z,5.70
2019-06-10T12:52:07.251Z,6.17
2019-06-10T12:54:32.662Z,5.60
2019-06-10T12:57:04.768Z,5.67
2019-06-10T12:59:32.664Z,6.00
2019-06-10T13:02:06.723Z,5.90
2019-06-10T13:04:28.937Z,5.97
2019-06-10T13:07:00.301Z,5.53
2019-06-10T13:09:29.537Z,6.63
2019-06-10T13:11:57.779Z,5.40
2019-06-10T13:14:25.892Z,6.60
2019-06-10T13:16:55.925Z,5.67
2019-06-10T13:19:23.231Z,6.50
2019-06-10T13:21:50.337Z,6.23
2019-06-10T13:24:17.302Z,6.13
2019-06-10T13:26:44.349Z,6.00
2019-06-10T13:29:16.865Z,6.00
2019-06-10T13:31:44.186Z,5.60
2019-06-10T13:34:13.967Z,6.20
2019-06-10T13:36:42.106Z,6.27
2019-06-10T13:39:10.481Z,6.53
2019-06-10T13:41:38.919Z,5.60
2019-06-10T13:44:06.354Z,5.77
2019-06-10T13:46:33.477Z,6.10
2019-06-10T13:49:10.626Z,5.27
2019-06-10T13:51:36.670Z,6.17
2019-06-10T13:54:06.677Z,5.43
2019-06-10T13:56:45.693Z,5.23
2019-06-10T13:59:03.672Z,5.23
2019-06-10T14:01:30.430Z,5.20
2019-06-10T14:03:57.476Z,5.40
2019-06-10T14:06:39.588Z,5.73
2019-06-10T14:08:55.042Z,5.30
2019-06-10T14:11:27.938Z,5.40
2019-06-10T14:13:53.322Z,5.10
2019-06-10T14:16:20.310Z,5.50
2019-06-10T14:18:47.300Z,5.40
2019-06-10T14:21:18.549Z,5.47
2019-06-10T14:23:48.174Z,5.63
2019-06-10T14:26:17.122Z,5.33
2019-06-10T14:28:44.481Z,4.97
2019-06-10T14:31:33.702Z,5.53
2019-06-10T14:33:43.077Z,5.00
2019-06-10T14:36:16.877Z,5.63
2019-06-10T14:38:44.016Z,5.17
2019-06-10T14:41:14.234Z,5.43
2019-06-10T14:43:42.442Z,4.80
2019-06-10T14:46:09.455Z,4.73
2019-06-10T14:48:36.439Z,5.13
2019-06-10T14:51:08.877Z,5.07
2019-06-10T14:53:35.991Z,5.20
2019-06-10T14:56:03.850Z,4.97
2019-06-10T14:58:33.905Z,5.10
2019-06-10T15:01:04.359Z,4.53
2019-06-10T15:03:29.759Z,4.80
2019-06-10T15:05:56.842Z,4.60
2019-06-10T15:08:28.947Z,4.77
2019-06-10T15:10:56.006Z,4.93
2019-06-10T15:13:28.167Z,5.00
2019-06-10T15:15:55.139Z,4.63
2019-06-10T15:18:23.601Z,5.17
2019-06-10T15:20:53.415Z,4.70
2019-06-10T15:23:21.001Z,4.13
2019-06-10T15:25:53.009Z,4.30
2019-06-10T15:28:17.698Z,4.47
2019-06-10T15:30:48.092Z,4.83
2019-06-10T15:33:16.655Z,4.63
2019-06-10T15:35:43.970Z,5.07
2019-06-10T15:38:14.826Z,4.80
2019-06-10T15:40:39.876Z,4.73
2019-06-10T15:43:06.885Z,4.30
2019-06-10T15:45:36.953Z,4.50
2019-06-10T15:48:06.867Z,4.83
2019-06-10T15:50:33.882Z,4.83
2019-06-10T15:53:03.031Z,5.13
2019-06-10T15:55:55.570Z,5.00
2019-06-10T15:58:01.932Z,4.97
2019-06-10T16:00:29.475Z,4.60
2019-06-10T16:02:56.595Z,4.97
2019-06-10T16:05:26.343Z,4.40
2019-06-10T16:07:56.389Z,4.70
2019-06-10T16:10:27.797Z,4.63
2019-06-10T16:12:55.389Z,5.07
2019-06-10T16:15:24.763Z,4.70
2019-06-10T16:17:53.414Z,5.03
2019-06-10T16:20:23.541Z,4.83
2019-06-10T16:22:52.337Z,5.17
2019-06-10T16:25:19.996Z,5.17
2019-06-10T16:27:51.042Z,5.53
2019-06-10T16:30:18.725Z,4.60
2019-06-10T16:32:46.586Z,5.47
2019-06-10T16:35:16.792Z,5.30
2019-06-10T16:37:43.812Z,5.00
2019-06-10T16:40:15.114Z,4.87
2019-06-10T16:42:43.125Z,4.90
2019-06-10T16:45:12.973Z,4.83
2019-06-10T16:47:42.870Z,5.00
2019-06-10T16:50:09.424Z,5.13
2019-06-10T16:52:36.448Z,4.70
2019-06-10T16:55:03.710Z,5.80
2019-06-10T16:57:33.270Z,5.27
2019-06-10T17:00:04.139Z,4.53
2019-06-10T17:02:32.915Z,4.80
2019-06-10T17:04:59.162Z,5.13
2019-06-10T17:07:26.927Z,5.30
2019-06-10T17:09:54.028Z,4.90
2019-06-10T17:12:24.863Z,5.63
2019-06-10T17:14:55.261Z,4.73
2019-06-10T17:17:24.818Z,5.30
2019-06-10T17:19:51.193Z,5.30
2019-06-10T17:22:23.508Z,5.10
2019-06-10T17:24:50.049Z,4.80
2019-06-10T17:27:22.276Z,5.30
2019-06-10T17:29:48.439Z,5.03
2019-06-10T17:32:15.842Z,4.63
2019-06-10T17:34:45.408Z,5.30
2019-06-10T17:37:12.625Z,4.77
2019-06-10T17:39:39.632Z,5.20
2019-06-10T17:42:06.620Z,5.13
2019-06-10T17:44:33.634Z,5.70
2019-06-10T17:47:02.229Z,4.93
2019-06-10T17:49:30.357Z,5.13
2019-06-10T17:51:58.437Z,5.20
2019-06-10T17:54:26.787Z,5.90
2019-06-10T17:56:56.399Z,5.87
2019-06-10T17:59:26.811Z,5.57
2019-06-10T18:01:53.876Z,5.00
2019-06-10T18:04:22.614Z,5.43
2019-06-10T18:06:53.494Z,5.97
2019-06-10T18:09:22.697Z,5.60
2019-06-10T18:11:49.558Z,5.63
2019-06-10T18:14:16.633Z,5.63
2019-06-10T18:16:43.628Z,5.40
2019-06-10T18:19:10.661Z,5.87
2019-06-10T18:21:38.818Z,5.10
2019-06-10T18:24:12.708Z,5.50
2019-06-10T18:26:39.668Z,5.83
2019-06-10T18:29:09.167Z,5.43
2019-06-10T18:31:43.006Z,5.87
2019-06-10T18:34:10.174Z,5.40
2019-06-10T18:36:37.711Z,6.03
2019-06-10T18:39:06.032Z,5.60
2019-06-10T18:41:34.199Z,5.93
2019-06-10T18:44:02.316Z,6.07
2019-06-10T18:46:30.443Z,6.63
2019-06-10T18:48:58.411Z,6.27
2019-06-10T18:51:25.498Z,6.27
2019-06-10T18:53:54.214Z,6.17
2019-06-10T18:56:23.328Z,6.13
2019-06-10T18:58:52.890Z,6.20
2019-06-10T19:01:22.647Z,6.20
2019-06-10T19:03:51.611Z,6.27
2019-06-10T19:06:18.597Z,6.13
2019-06-10T19:08:45.616Z,6.53
2019-06-10T19:11:12.804Z,6.43
2019-06-10T19:13:40.972Z,6.53
2019-06-10T19:16:13.151Z,6.03
2019-06-10T19:18:42.940Z,6.20
2019-06-10T19:21:09.232Z,6.40
2019-06-10T19:23:37.820Z,6.10
2019-06-10T19:26:09.539Z,6.87
2019-06-10T19:28:38.450Z,6.40
2019-06-10T19:31:05.433Z,6.83
2019-06-10T19:33:35.206Z,6.73
2019-06-10T19:36:02.245Z,7.13
2019-06-10T19:38:38.748Z,6.83
2019-06-10T19:41:08.585Z,7.23
2019-06-10T19:43:39.513Z,6.67
2019-06-10T19:46:07.726Z,7.00
2019-06-10T19:48:38.386Z,6.83
2019-06-10T19:51:08.738Z,7.20
2019-06-10T19:53:37.233Z,6.80
2019-06-10T19:56:04.429Z,6.70
2019-06-10T19:58:36.355Z,7.23
2019-06-10T20:01:03.334Z,6.67
2019-06-10T20:03:32.547Z,6.30
2019-06-10T20:05:59.204Z,7.53
2019-06-10T20:08:26.244Z,7.07
2019-06-10T20:10:53.417Z,6.50
2019-06-10T20:13:22.530Z,6.93
2019-06-10T20:15:52.476Z,6.03
2019-06-10T20:18:19.599Z,6.80
2019-06-10T20:20:47.241Z,6.87
2019-06-10T20:23:19.920Z,7.50
2019-06-10T20:25:49.907Z,7.47
2019-06-10T20:28:16.910Z,11.90
2019-06-10T20:30:48.669Z,7.90
2019-06-10T20:33:29.264Z,8.00
2019-06-10T20:35:56.326Z,8.17
2019-06-10T20:38:23.305Z,8.63
2019-06-10T20:40:52.990Z,9.27
2019-06-10T20:43:19.383Z,8.77
2019-06-10T20:45:47.990Z,8.77
2019-06-10T20:48:15.123Z,9.80
2019-06-10T20:50:44.342Z,8.87
2019-06-10T20:53:17.660Z,9.40
2019-06-10T20:55:43.343Z,9.57
2019-06-10T20:58:09.237Z,10.23
2019-06-10T21:00:37.151Z,10.30
2019-06-10T21:03:04.699Z,10.50
2019-06-10T21:05:32.929Z,10.40
2019-06-10T21:08:03.009Z,10.77
2019-06-10T21:10:34.876Z,10.30
2019-06-10T21:13:05.714Z,10.70
2019-06-10T21:15:33.384Z,9.60
2019-06-10T21:18:00.418Z,12.17
2019-06-10T21:20:28.499Z,11.63
2019-06-10T21:22:55.521Z,11.30
2019-06-10T21:25:22.979Z,12.90
2019-06-10T21:27:53.852Z,12.13
2019-06-10T21:30:34.794Z,13.30
2019-06-10T21:32:54.612Z,13.27
2019-06-10T21:35:19.839Z,12.93
2019-06-10T21:37:51.710Z,12.83
2019-06-10T21:40:18.783Z,13.63
2019-06-10T21:42:45.858Z,14.07
2019-06-10T21:45:16.017Z,14.03
2019-06-10T21:47:47.084Z,12.40
2019-06-10T21:50:15.601Z,12.83
2019-06-10T21:52:45.832Z,12.77
2019-06-10T21:55:17.857Z,13.37
2019-06-10T21:57:45.972Z,12.13
2019-06-10T22:00:16.538Z,12.40
2019-06-10T22:02:47.105Z,13.90
2019-06-10T22:05:14.371Z,13.13
2019-06-10T22:07:42.354Z,14.37
2019-06-10T22:10:12.791Z,13.20
2019-06-10T22:12:42.012Z,14.53
2019-06-10T22:15:13.992Z,14.70
2019-06-10T22:17:42.456Z,14.13
2019-06-10T22:20:12.347Z,14.37
2019-06-10T22:22:39.549Z,14.67
2019-06-10T22:25:06.645Z,15.57
2019-06-10T22:27:33.647Z,14.37
2019-06-10T22:30:10.968Z,15.53
2019-06-10T22:32:32.332Z,17.17
2019-06-10T22:34:59.391Z,17.60
2019-06-10T22:37:32.981Z,19.10
2019-06-10T22:40:03.367Z,19.27
2019-06-10T22:42:32.766Z,19.53
2019-06-10T22:45:00.270Z,19.00
2019-06-10T22:47:28.531Z,19.67
2019-06-10T22:49:59.868Z,19.07
2019-06-10T22:52:27.222Z,19.73
2019-06-10T22:54:56.774Z,15.57
2019-06-10T22:57:30.757Z,17.73
2019-06-10T23:00:02.931Z,16.57
2019-06-10T23:02:29.441Z,16.27
2019-06-10T23:04:59.400Z,16.10
2019-06-10T23:07:25.288Z,16.40
2019-06-10T23:09:56.015Z,16.73
2019-06-10T23:12:23.403Z,17.33
2019-06-10T23:14:55.983Z,16.03
2019-06-10T23:17:25.421Z,16.47
2019-06-10T23:19:53.928Z,18.10
2019-06-10T23:22:22.003Z,18.27
2019-06-10T23:24:49.562Z,18.93
2019-06-10T23:27:16.589Z,19.70
2019-06-10T23:29:45.377Z,19.73
2019-06-10T23:32:16.863Z,19.27
2019-06-10T23:34:43.836Z,15.60
2019-06-10T23:37:12.525Z,16.73
2019-06-10T23:39:42.604Z,15.20
2019-06-10T23:42:14.191Z,17.43
2019-06-10T23:44:41.161Z,19.67
2019-06-10T23:47:08.175Z,18.80
2019-06-10T23:49:37.745Z,18.73
2019-06-10T23:52:05.585Z,20.00
2019-06-10T23:54:41.814Z,15.67
2019-06-10T23:57:08.887Z,15.90
2019-06-10T23:59:35.951Z,15.63
